Time;durP1;ratioP1;P1;durP2;ratioP2;P2;SDS_P1;SDS_P2;PMS_P1;PMS_P2;Temp;Humidity;BMP_temperature;BMP_pressure;BME280_temperature;BME280_humidity;BME280_pressure;Samples;Min_cycle;Max_cycle;Signal;HPM_P1;HPM_P2
2023/07/19 00:00:14;;;;;;;4.85;1.80;;;;;;;;;;4961865;28;20221;-59
2023/07/19 00:02:39;;;;;;;3.13;1.50;;;;;;;;;;4962741;28;20210;-59
2023/07/19 00:05:04;;;;;;;5.30;1.50;;;;;;;;;;4955160;28;20226;-60
2023/07/19 00:07:30;;;;;;;7.15;1.70;;;;;;;;;;4955014;28;21227;-59
2023/07/19 00:09:55;;;;;;;8.10;1.70;;;;;;;;;;4954207;28;20217;-59
2023/07/19 00:12:20;;;;;;;5.60;1.40;;;;;;;;;;4956199;28;20297;-59
2023/07/19 00:14:46;;;;;;;4.93;1.48;;;;;;;;;;4960996;28;20226;-59
2023/07/19 00:17:11;;;;;;;5.00;1.40;;;;;;;;;;4961464;28;20210;-59
2023/07/19 00:19:37;;;;;;;4.97;1.35;;;;;;;;;;4961010;28;20231;-59
2023/07/19 00:22:02;;;;;;;4.50;1.60;;;;;;;;;;4960197;28;21172;-59
2023/07/19 00:24:27;;;;;;;4.32;1.80;;;;;;;;;;4961888;28;20669;-59
2023/07/19 00:26:53;;;;;;;3.85;1.88;;;;;;;;;;4960128;28;20953;-59
2023/07/19 00:29:19;;;;;;;6.95;1.60;;;;;;;;;;4952097;28;20218;-59
2023/07/19 00:31:44;;;;;;;5.47;1.50;;;;;;;;;;4953999;28;20589;-59
2023/07/19 00:34:09;;;;;;;7.05;1.67;;;;;;;;;;4954271;28;20221;-60
2023/07/19 00:36:35;;;;;;;3.83;1.73;;;;;;;;;;4959537;28;20210;-59
2023/07/19 00:39:00;;;;;;;6.60;1.85;;;;;;;;;;4960383;28;20279;-59
2023/07/19 00:41:25;;;;;;;5.38;1.30;;;;;;;;;;4961549;28;20244;-59
2023/07/19 00:43:51;;;;;;;6.80;1.60;;;;;;;;;;4961506;28;20225;-59
2023/07/19 00:46:16;;;;;;;4.75;1.83;;;;;;;;;;4974892;28;20237;-59
2023/07/19 00:48:42;;;;;;;6.18;1.80;;;;;;;;;;4980865;28;20236;-59
2023/07/19 00:51:07;;;;;;;6.47;1.52;;;;;;;;;;4956560;28;20351;-59
2023/07/19 00:53:32;;;;;;;6.45;2.00;;;;;;;;;;4953099;28;20308;-59
2023/07/19 00:55:58;;;;;;;5.10;1.73;;;;;;;;;;4972562;28;20217;-60
2023/07/19 00:58:23;;;;;;;7.65;1.80;;;;;;;;;;4979232;28;20875;-59
2023/07/19 01:00:50;;;;;;;6.75;1.58;;;;;;;;;;4978945;28;20619;-59
2023/07/19 01:03:15;;;;;;;5.70;1.50;;;;;;;;;;4961333;28;20209;-59
2023/07/19 01:05:40;;;;;;;4.40;1.50;;;;;;;;;;4981029;28;20912;-59
2023/07/19 01:08:05;;;;;;;5.20;1.63;;;;;;;;;;4979004;28;20213;-59
2023/07/19 01:10:31;;;;;;;5.93;1.60;;;;;;;;;;4978369;28;20234;-59
2023/07/19 01:13:06;;;;;;;6.10;1.85;;;;;;;;;;4974943;28;20317;-59
2023/07/19 01:15:31;;;;;;;8.95;1.70;;;;;;;;;;4971543;28;20212;-59
2023/07/19 01:17:57;;;;;;;3.90;1.58;;;;;;;;;;4971184;28;20659;-59
2023/07/19 01:20:22;;;;;;;4.30;1.55;;;;;;;;;;4975740;28;20591;-59
2023/07/19 01:22:47;;;;;;;4.47;1.70;;;;;;;;;;4979603;28;20689;-59
2023/07/19 01:25:13;;;;;;;3.28;1.40;;;;;;;;;;4979359;28;20588;-59
2023/07/19 01:27:39;;;;;;;3.78;1.67;;;;;;;;;;4978080;28;20260;-59
2023/07/19 01:30:05;;;;;;;2.58;1.30;;;;;;;;;;4978750;28;20234;-59
2023/07/19 01:32:30;;;;;;;5.43;1.67;;;;;;;;;;4980291;28;20700;-59
2023/07/19 01:34:56;;;;;;;4.70;1.70;;;;;;;;;;4976067;28;20958;-59
2023/07/19 01:37:21;;;;;;;7.68;1.98;;;;;;;;;;4971173;28;20209;-59
2023/07/19 01:39:46;;;;;;;5.47;1.70;;;;;;;;;;4972080;28;20233;-59
2023/07/19 01:42:12;;;;;;;2.80;1.58;;;;;;;;;;4972108;28;20363;-59
2023/07/19 01:44:37;;;;;;;4.78;1.40;;;;;;;;;;4978205;28;20622;-59
2023/07/19 01:47:02;;;;;;;6.82;1.60;;;;;;;;;;4979437;28;20232;-59
2023/07/19 01:49:28;;;;;;;3.00;1.35;;;;;;;;;;4978592;28;20263;-59
2023/07/19 01:51:53;;;;;;;4.25;1.58;;;;;;;;;;4977879;28;20265;-59
2023/07/19 01:54:18;;;;;;;4.93;1.50;;;;;;;;;;4978831;28;21042;-59
2023/07/19 01:56:44;;;;;;;4.88;1.50;;;;;;;;;;4979055;28;20818;-59
2023/07/19 01:59:09;;;;;;;6.30;1.80;;;;;;;;;;4970816;28;20700;-59
2023/07/19 02:01:34;;;;;;;3.85;1.60;;;;;;;;;;4970941;28;21335;-59
2023/07/19 02:03:59;;;;;;;3.10;1.40;;;;;;;;;;4971333;28;20574;-59
2023/07/19 02:06:25;;;;;;;4.65;1.80;;;;;;;;;;4977151;28;20558;-59
2023/07/19 02:08:50;;;;;;;5.03;1.73;;;;;;;;;;4978249;28;20740;-59
2023/07/19 02:11:15;;;;;;;7.93;1.67;;;;;;;;;;4977846;28;20631;-59
2023/07/19 02:13:41;;;;;;;4.53;1.40;;;;;;;;;;4979718;28;20587;-59
2023/07/19 02:16:06;;;;;;;5.20;1.63;;;;;;;;;;4976008;28;20225;-59
2023/07/19 02:18:31;;;;;;;4.70;1.77;;;;;;;;;;4978874;28;20268;-59
2023/07/19 02:20:57;;;;;;;4.75;1.58;;;;;;;;;;4974945;28;20621;-59
2023/07/19 02:23:22;;;;;;;5.55;1.70;;;;;;;;;;4969907;28;20280;-59
2023/07/19 02:25:49;;;;;;;5.75;1.60;;;;;;;;;;4971532;28;20244;-59
2023/07/19 02:28:15;;;;;;;5.45;1.50;;;;;;;;;;4978464;28;20224;-59
2023/07/19 02:30:41;;;;;;;5.72;1.90;;;;;;;;;;4977335;28;20228;-59
2023/07/19 02:33:06;;;;;;;4.05;1.65;;;;;;;;;;4978424;28;20829;-59
2023/07/19 02:35:31;;;;;;;5.57;1.80;;;;;;;;;;4978718;28;20359;-59
2023/07/19 02:37:57;;;;;;;5.25;1.80;;;;;;;;;;4977044;28;20217;-59
2023/07/19 02:40:22;;;;;;;5.43;1.83;;;;;;;;;;4977843;28;20221;-59
2023/07/19 02:42:47;;;;;;;4.70;1.80;;;;;;;;;;4976304;28;20216;-59
2023/07/19 02:45:13;;;;;;;5.80;1.85;;;;;;;;;;4969450;28;20241;-59
2023/07/19 02:47:38;;;;;;;4.63;1.88;;;;;;;;;;4969996;28;20201;-59
2023/07/19 02:50:03;;;;;;;5.82;2.17;;;;;;;;;;4972788;28;20674;-59
2023/07/19 02:52:29;;;;;;;6.97;1.70;;;;;;;;;;4977043;28;20237;-59
2023/07/19 02:54:54;;;;;;;6.60;2.08;;;;;;;;;;4977537;28;20295;-59
2023/07/19 02:57:19;;;;;;;4.75;1.88;;;;;;;;;;4978414;28;20684;-59
2023/07/19 02:59:45;;;;;;;6.53;1.90;;;;;;;;;;4983115;28;20710;-59
2023/07/19 03:02:10;;;;;;;3.47;1.70;;;;;;;;;;4989252;28;20248;-59
2023/07/19 03:04:35;;;;;;;4.07;1.67;;;;;;;;;;4992443;28;20292;-59
2023/07/19 03:07:01;;;;;;;5.00;1.70;;;;;;;;;;4991366;28;20224;-60
2023/07/19 03:09:26;;;;;;;5.18;1.95;;;;;;;;;;4990512;28;20685;-59
2023/07/19 03:11:51;;;;;;;4.72;1.55;;;;;;;;;;4982024;28;21287;-59
2023/07/19 03:14:17;;;;;;;4.47;1.85;;;;;;;;;;4981623;28;20332;-59
2023/07/19 03:16:42;;;;;;;3.92;2.05;;;;;;;;;;4977781;28;20213;-59
2023/07/19 03:19:08;;;;;;;8.98;1.95;;;;;;;;;;4973005;28;20300;-59
2023/07/19 03:21:33;;;;;;;5.28;2.10;;;;;;;;;;4973991;28;20208;-59
2023/07/19 03:23:59;;;;;;;3.50;1.70;;;;;;;;;;4978925;28;20228;-59
2023/07/19 03:26:24;;;;;;;5.53;1.90;;;;;;;;;;4979397;28;20220;-59
2023/07/19 03:28:49;;;;;;;5.22;1.92;;;;;;;;;;4981810;28;20354;-59
2023/07/19 03:31:14;;;;;;;5.07;1.70;;;;;;;;;;4981565;28;20233;-59
2023/07/19 03:33:40;;;;;;;4.55;1.80;;;;;;;;;;4980889;28;20562;-59
2023/07/19 03:36:05;;;;;;;4.43;1.80;;;;;;;;;;4980443;28;20279;-59
2023/07/19 03:38:30;;;;;;;7.32;2.35;;;;;;;;;;4980153;28;20217;-59
2023/07/19 03:41:03;;;;;;;4.95;2.00;;;;;;;;;;4974306;28;20295;-59
2023/07/19 03:43:28;;;;;;;5.10;1.98;;;;;;;;;;4971556;28;20304;-59
2023/07/19 03:45:54;;;;;;;3.65;1.55;;;;;;;;;;4976262;28;20233;-59
2023/07/19 03:48:19;;;;;;;5.43;2.05;;;;;;;;;;4981621;28;20219;-59
2023/07/19 03:50:44;;;;;;;6.03;1.90;;;;;;;;;;4978844;28;20279;-59
2023/07/19 03:53:10;;;;;;;5.75;1.92;;;;;;;;;;4981403;28;20248;-59
2023/07/19 03:55:35;;;;;;;6.55;2.20;;;;;;;;;;4981795;28;20221;-59
2023/07/19 03:58:00;;;;;;;4.72;1.70;;;;;;;;;;4980122;28;20322;-59
2023/07/19 04:00:27;;;;;;;4.30;1.85;;;;;;;;;;4980575;28;20217;-59
2023/07/19 04:02:52;;;;;;;4.25;1.90;;;;;;;;;;4974018;28;20209;-59
2023/07/19 04:05:17;;;;;;;8.25;1.83;;;;;;;;;;4973209;28;20216;-59
2023/07/19 04:07:43;;;;;;;3.90;1.80;;;;;;;;;;4971959;28;20205;-59
2023/07/19 04:10:08;;;;;;;7.30;2.50;;;;;;;;;;4979235;28;20249;-59
2023/07/19 04:12:34;;;;;;;7.13;2.75;;;;;;;;;;4980112;28;20221;-59
2023/07/19 04:14:59;;;;;;;4.13;1.80;;;;;;;;;;4980058;28;20456;-59
2023/07/19 04:17:24;;;;;;;6.47;1.83;;;;;;;;;;4979920;28;20217;-59
2023/07/19 04:19:49;;;;;;;5.20;1.80;;;;;;;;;;4981830;28;20217;-59
2023/07/19 04:22:15;;;;;;;6.60;2.15;;;;;;;;;;4979937;28;20587;-59
2023/07/19 04:24:40;;;;;;;6.97;2.20;;;;;;;;;;4975335;28;20225;-60
2023/07/19 04:27:05;;;;;;;6.95;2.13;;;;;;;;;;4973351;28;20213;-60
2023/07/19 04:29:31;;;;;;;6.65;2.38;;;;;;;;;;4973300;28;20217;-60
2023/07/19 04:31:56;;;;;;;7.68;2.67;;;;;;;;;;4975259;28;20232;-59
2023/07/19 04:34:21;;;;;;;7.10;3.55;;;;;;;;;;4980498;28;20217;-59
2023/07/19 04:36:48;;;;;;;11.52;3.97;;;;;;;;;;4981105;28;20271;-59
2023/07/19 04:39:13;;;;;;;8.00;3.65;;;;;;;;;;4978063;28;20784;-59
2023/07/19 04:41:39;;;;;;;9.05;3.10;;;;;;;;;;4980698;28;20221;-59
2023/07/19 04:44:04;;;;;;;7.18;3.72;;;;;;;;;;4980357;28;20210;-60
2023/07/19 04:46:29;;;;;;;6.93;3.50;;;;;;;;;;4977998;28;20237;-59
2023/07/19 04:48:55;;;;;;;9.07;3.78;;;;;;;;;;4971860;28;20208;-59
2023/07/19 04:51:20;;;;;;;7.88;3.88;;;;;;;;;;4972625;28;20708;-59
2023/07/19 04:53:45;;;;;;;10.55;3.88;;;;;;;;;;4974460;28;20228;-59
2023/07/19 04:56:11;;;;;;;8.90;4.18;;;;;;;;;;4977935;28;20224;-59
2023/07/19 04:58:36;;;;;;;9.50;3.75;;;;;;;;;;4981075;28;20217;-59
2023/07/19 05:01:03;;;;;;;9.02;3.53;;;;;;;;;;4979829;28;20312;-60
2023/07/19 05:03:29;;;;;;;9.80;3.97;;;;;;;;;;4979438;28;20235;-59
2023/07/19 05:05:54;;;;;;;7.18;3.35;;;;;;;;;;4979508;28;20665;-60
2023/07/19 05:08:19;;;;;;;7.88;3.58;;;;;;;;;;4979260;28;20230;-60
2023/07/19 05:10:45;;;;;;;11.55;3.88;;;;;;;;;;4973097;28;20291;-60
2023/07/19 05:13:10;;;;;;;8.45;3.78;;;;;;;;;;4969509;28;20221;-60
2023/07/19 05:15:36;;;;;;;11.07;4.18;;;;;;;;;;4972774;28;20677;-60
2023/07/19 05:18:02;;;;;;;12.07;3.83;;;;;;;;;;4979470;28;20221;-60
2023/07/19 05:20:28;;;;;;;8.55;3.85;;;;;;;;;;4977573;28;20216;-60
2023/07/19 05:22:53;;;;;;;9.13;4.20;;;;;;;;;;4979432;28;20217;-60
2023/07/19 05:25:18;;;;;;;10.02;4.13;;;;;;;;;;4979897;28;20217;-60
2023/07/19 05:27:43;;;;;;;8.77;4.43;;;;;;;;;;4978172;28;20221;-60
2023/07/19 05:30:09;;;;;;;8.55;4.28;;;;;;;;;;4978710;28;20232;-60
2023/07/19 05:32:34;;;;;;;10.73;4.00;;;;;;;;;;4975232;28;20213;-60
2023/07/19 05:35:00;;;;;;;7.40;3.65;;;;;;;;;;4971578;28;20897;-60
2023/07/19 05:37:25;;;;;;;8.55;3.67;;;;;;;;;;4970002;28;20232;-60
2023/07/19 05:39:50;;;;;;;8.00;3.72;;;;;;;;;;4976518;28;20212;-61
2023/07/19 05:42:16;;;;;;;8.15;3.58;;;;;;;;;;4978916;28;20213;-58
2023/07/19 05:44:41;;;;;;;10.05;4.28;;;;;;;;;;4977772;28;20217;-59
2023/07/19 05:47:07;;;;;;;8.77;4.00;;;;;;;;;;4978199;28;20437;-59
2023/07/19 05:49:33;;;;;;;7.88;4.00;;;;;;;;;;4978932;28;21594;-58
2023/07/19 05:51:58;;;;;;;7.90;4.03;;;;;;;;;;4978872;28;20315;-59
2023/07/19 05:54:23;;;;;;;9.38;4.07;;;;;;;;;;4976111;28;20275;-59
2023/07/19 05:56:49;;;;;;;9.02;3.88;;;;;;;;;;4974627;28;20213;-59
2023/07/19 05:59:14;;;;;;;7.45;3.80;;;;;;;;;;4970710;28;20660;-59
2023/07/19 06:01:39;;;;;;;10.52;4.40;;;;;;;;;;4974721;28;20225;-59
2023/07/19 06:04:05;;;;;;;9.48;3.83;;;;;;;;;;4976340;28;20221;-59
2023/07/19 06:06:32;;;;;;;8.55;4.05;;;;;;;;;;4978445;28;20584;-59
2023/07/19 06:08:59;;;;;;;8.93;4.28;;;;;;;;;;4979166;28;20656;-59
2023/07/19 06:11:24;;;;;;;8.25;4.15;;;;;;;;;;4977487;28;20264;-59
2023/07/19 06:13:50;;;;;;;10.02;3.80;;;;;;;;;;4977732;28;20614;-60
2023/07/19 06:16:15;;;;;;;8.55;4.30;;;;;;;;;;4978364;28;20681;-59
2023/07/19 06:18:40;;;;;;;9.05;4.30;;;;;;;;;;4971193;28;20224;-59
2023/07/19 06:21:06;;;;;;;11.52;4.40;;;;;;;;;;4968419;28;20531;-59
2023/07/19 06:23:31;;;;;;;8.05;4.05;;;;;;;;;;4969558;28;20432;-59
2023/07/19 06:25:56;;;;;;;10.93;4.30;;;;;;;;;;4979135;28;20224;-59
2023/07/19 06:28:21;;;;;;;8.30;3.70;;;;;;;;;;4977116;28;20286;-59
2023/07/19 06:30:47;;;;;;;10.88;3.80;;;;;;;;;;4977513;28;20283;-59
2023/07/19 06:33:12;;;;;;;8.32;3.70;;;;;;;;;;4979285;28;20316;-60
2023/07/19 06:35:37;;;;;;;9.55;3.38;;;;;;;;;;4986624;28;20217;-59
2023/07/19 06:38:03;;;;;;;8.20;3.72;;;;;;;;;;4985105;28;20216;-59
2023/07/19 06:40:28;;;;;;;9.10;3.22;;;;;;;;;;4988645;28;20217;-60
2023/07/19 06:42:53;;;;;;;6.65;3.10;;;;;;;;;;4988262;28;20233;-59
2023/07/19 06:45:19;;;;;;;7.95;3.10;;;;;;;;;;4985107;28;20275;-59
2023/07/19 06:47:44;;;;;;;7.60;2.92;;;;;;;;;;4987761;28;20236;-60
2023/07/19 06:50:10;;;;;;;9.63;3.10;;;;;;;;;;4987411;28;20224;-60
2023/07/19 06:52:36;;;;;;;7.90;3.13;;;;;;;;;;4986179;28;20224;-59
2023/07/19 06:55:02;;;;;;;8.45;3.00;;;;;;;;;;4985914;28;20217;-60
2023/07/19 06:57:27;;;;;;;8.93;2.83;;;;;;;;;;4987660;28;20224;-59
2023/07/19 06:59:52;;;;;;;8.05;2.60;;;;;;;;;;4987031;28;20221;-59
2023/07/19 07:02:18;;;;;;;6.05;2.45;;;;;;;;;;4985193;28;20292;-59
2023/07/19 07:04:45;;;;;;;8.05;2.17;;;;;;;;;;4987856;28;20225;-60
2023/07/19 07:07:10;;;;;;;5.50;2.05;;;;;;;;;;4968107;28;20245;-60
2023/07/19 07:09:36;;;;;;;6.22;2.05;;;;;;;;;;4986099;28;20213;-59
2023/07/19 07:12:02;;;;;;;7.00;2.00;;;;;;;;;;4986601;28;20565;-60
2023/07/19 07:14:27;;;;;;;9.35;2.60;;;;;;;;;;4987106;28;20247;-59
2023/07/19 07:16:52;;;;;;;11.80;2.10;;;;;;;;;;4987283;28;20205;-60
2023/07/19 07:19:18;;;;;;;6.43;2.05;;;;;;;;;;4985891;28;20232;-60
2023/07/19 07:21:43;;;;;;;7.97;1.92;;;;;;;;;;4986794;28;20215;-59
2023/07/19 07:24:08;;;;;;;5.78;1.95;;;;;;;;;;4987574;28;20227;-60
2023/07/19 07:26:34;;;;;;;7.63;2.05;;;;;;;;;;4985686;28;20213;-60
2023/07/19 07:28:59;;;;;;;5.85;2.20;;;;;;;;;;4987148;28;20221;-60
2023/07/19 07:31:24;;;;;;;6.95;2.10;;;;;;;;;;4987253;28;20232;-60
2023/07/19 07:33:50;;;;;;;7.15;1.77;;;;;;;;;;4967637;28;20214;-60
2023/07/19 07:36:15;;;;;;;9.48;2.10;;;;;;;;;;4987088;28;20221;-59
2023/07/19 07:38:40;;;;;;;5.85;2.03;;;;;;;;;;4990812;28;20386;-60
2023/07/19 07:41:06;;;;;;;7.22;2.05;;;;;;;;;;4986355;28;20260;-60
2023/07/19 07:43:31;;;;;;;6.68;2.25;;;;;;;;;;4988349;28;20300;-59
2023/07/19 07:45:57;;;;;;;7.32;2.00;;;;;;;;;;4986362;28;20363;-59
2023/07/19 07:48:22;;;;;;;5.85;1.33;;;;;;;;;;4990478;28;20310;-60
2023/07/19 07:50:51;;;;;;;6.57;1.75;;;;;;;;;;4991676;28;20355;-59
2023/07/19 07:53:17;;;;;;;5.82;1.73;;;;;;;;;;4990246;28;20725;-59
2023/07/19 07:55:42;;;;;;;8.65;1.85;;;;;;;;;;4989265;28;20312;-59
2023/07/19 07:58:07;;;;;;;6.53;2.05;;;;;;;;;;4985268;28;20301;-59
2023/07/19 08:00:33;;;;;;;5.13;1.75;;;;;;;;;;4987670;28;20245;-59
2023/07/19 08:02:58;;;;;;;5.63;2.10;;;;;;;;;;4993415;28;20248;-59
2023/07/19 08:05:23;;;;;;;6.18;2.15;;;;;;;;;;4988787;28;20236;-60
2023/07/19 08:07:49;;;;;;;6.72;2.10;;;;;;;;;;4991631;28;20585;-60
2023/07/19 08:10:14;;;;;;;7.38;2.10;;;;;;;;;;4989859;28;20591;-59
2023/07/19 08:12:39;;;;;;;9.88;2.55;;;;;;;;;;4988963;28;20217;-59
2023/07/19 08:15:05;;;;;;;7.32;2.60;;;;;;;;;;4990038;28;20237;-59
2023/07/19 08:17:31;;;;;;;6.25;2.10;;;;;;;;;;4990648;28;20213;-59
2023/07/19 08:19:56;;;;;;;7.53;1.92;;;;;;;;;;4990308;28;20217;-59
2023/07/19 08:22:23;;;;;;;9.02;2.60;;;;;;;;;;4989032;28;20213;-59
2023/07/19 08:24:49;;;;;;;6.45;2.30;;;;;;;;;;4990188;28;20255;-59
2023/07/19 08:27:14;;;;;;;7.20;2.42;;;;;;;;;;4990002;28;20339;-59
2023/07/19 08:29:39;;;;;;;8.52;2.50;;;;;;;;;;4971248;28;20272;-59
2023/07/19 08:32:05;;;;;;;7.68;2.40;;;;;;;;;;4989702;28;20228;-59
2023/07/19 08:34:30;;;;;;;5.32;2.38;;;;;;;;;;4990956;28;20583;-59
2023/07/19 08:36:55;;;;;;;8.30;2.30;;;;;;;;;;4989460;28;20214;-60
2023/07/19 08:39:23;;;;;;;11.13;2.45;;;;;;;;;;4988498;28;21182;-59
2023/07/19 08:41:48;;;;;;;7.93;2.30;;;;;;;;;;4990527;28;20213;-59
2023/07/19 08:44:13;;;;;;;8.57;2.55;;;;;;;;;;4988998;28;20201;-60
2023/07/19 08:46:40;;;;;;;5.55;2.20;;;;;;;;;;4988494;28;20795;-59
2023/07/19 08:49:05;;;;;;;9.15;2.40;;;;;;;;;;4990223;28;20217;-59
2023/07/19 08:51:31;;;;;;;10.05;2.50;;;;;;;;;;4970422;28;20297;-59
2023/07/19 08:53:56;;;;;;;7.05;2.13;;;;;;;;;;4993702;28;20205;-59
2023/07/19 08:56:21;;;;;;;8.65;2.88;;;;;;;;;;4992374;28;20563;-59
2023/07/19 08:58:46;;;;;;;8.13;2.88;;;;;;;;;;4991697;28;20700;-59
2023/07/19 09:01:13;;;;;;;7.78;2.80;;;;;;;;;;4992712;28;20232;-59
2023/07/19 09:03:38;;;;;;;7.57;2.40;;;;;;;;;;4993079;28;20230;-59
2023/07/19 09:06:04;;;;;;;10.55;2.80;;;;;;;;;;4991946;28;20651;-60
2023/07/19 09:08:34;;;;;;;7.03;2.60;;;;;;;;;;4993015;28;20221;-59
2023/07/19 09:11:00;;;;;;;8.82;3.00;;;;;;;;;;4992217;28;20225;-59
2023/07/19 09:13:25;;;;;;;10.05;2.78;;;;;;;;;;4991588;28;20225;-59
2023/07/19 09:15:50;;;;;;;6.50;2.40;;;;;;;;;;4992773;28;20209;-59
2023/07/19 09:18:17;;;;;;;9.18;2.20;;;;;;;;;;4992371;28;20213;-59
2023/07/19 09:20:42;;;;;;;5.55;2.03;;;;;;;;;;4992020;28;20213;-59
2023/07/19 09:23:08;;;;;;;7.25;2.17;;;;;;;;;;4992254;28;20268;-59
2023/07/19 09:25:34;;;;;;;5.07;2.17;;;;;;;;;;4992249;28;20776;-59
2023/07/19 09:28:04;;;;;;;7.57;1.90;;;;;;;;;;4974278;28;20213;-59
2023/07/19 09:30:29;;;;;;;6.95;2.28;;;;;;;;;;4992115;28;20672;-59
2023/07/19 09:33:00;;;;;;;9.52;2.20;;;;;;;;;;4992431;28;20214;-59
2023/07/19 09:35:26;;;;;;;5.22;2.03;;;;;;;;;;4991465;28;20252;-59
2023/07/19 09:37:52;;;;;;;7.18;2.30;;;;;;;;;;4992448;28;20232;-59
2023/07/19 09:40:17;;;;;;;4.78;2.40;;;;;;;;;;4991595;28;20580;-60
2023/07/19 09:42:42;;;;;;;6.38;2.40;;;;;;;;;;4991402;28;20252;-59
2023/07/19 09:45:08;;;;;;;8.25;2.58;;;;;;;;;;4991597;28;20241;-59
2023/07/19 09:47:34;;;;;;;6.55;2.38;;;;;;;;;;4973485;28;20520;-59
2023/07/19 09:49:59;;;;;;;8.10;1.98;;;;;;;;;;4992322;28;20213;-59
2023/07/19 09:52:25;;;;;;;7.65;2.03;;;;;;;;;;4991738;28;20295;-59
2023/07/19 09:54:50;;;;;;;3.95;1.85;;;;;;;;;;4991328;28;20244;-59
2023/07/19 09:57:15;;;;;;;6.78;2.00;;;;;;;;;;4991324;28;20661;-59
2023/07/19 09:59:42;;;;;;;3.25;1.50;;;;;;;;;;4974620;28;20687;-59
2023/07/19 10:02:07;;;;;;;7.45;2.05;;;;;;;;;;4990409;28;20229;-59
2023/07/19 10:04:34;;;;;;;8.80;2.20;;;;;;;;;;4992083;28;20681;-59
2023/07/19 10:07:08;;;;;;;6.50;2.05;;;;;;;;;;4991884;28;20391;-59
2023/07/19 10:09:40;;;;;;;4.72;1.80;;;;;;;;;;4990819;28;20268;-59
2023/07/19 10:12:06;;;;;;;5.75;1.80;;;;;;;;;;4991170;28;20229;-59
2023/07/19 10:14:31;;;;;;;7.68;2.00;;;;;;;;;;4991708;28;20209;-59
2023/07/19 10:16:58;;;;;;;5.38;1.85;;;;;;;;;;4990921;28;20243;-59
2023/07/19 10:19:24;;;;;;;7.30;2.08;;;;;;;;;;4991234;28;20240;-59
2023/07/19 10:22:01;;;;;;;6.85;1.80;;;;;;;;;;4991835;28;20217;-59
2023/07/19 10:24:27;;;;;;;3.58;1.70;;;;;;;;;;4990579;28;20244;-59
2023/07/19 10:26:52;;;;;;;3.50;1.67;;;;;;;;;;4991659;28;20694;-59
2023/07/19 10:29:17;;;;;;;4.57;1.80;;;;;;;;;;4987049;28;20224;-59
2023/07/19 10:31:42;;;;;;;6.55;1.98;;;;;;;;;;4988743;28;20307;-59
2023/07/19 10:34:08;;;;;;;6.78;2.53;;;;;;;;;;4987359;28;20213;-59
2023/07/19 10:36:37;;;;;;;8.20;2.50;;;;;;;;;;4987219;28;20291;-59
2023/07/19 10:39:02;;;;;;;5.50;2.20;;;;;;;;;;4988200;28;20604;-60
2023/07/19 10:41:28;;;;;;;5.82;2.47;;;;;;;;;;4988062;28;20232;-59
2023/07/19 10:43:57;;;;;;;7.43;2.42;;;;;;;;;;4985181;28;20202;-59
2023/07/19 10:46:23;;;;;;;6.75;2.22;;;;;;;;;;4983917;28;20298;-59
2023/07/19 10:48:48;;;;;;;16.15;4.63;;;;;;;;;;4988609;28;20661;-61
2023/07/19 10:51:14;;;;;;;11.52;4.50;;;;;;;;;;4985725;28;20229;-61
2023/07/19 10:53:40;;;;;;;11.75;4.57;;;;;;;;;;4986925;28;20244;-60
2023/07/19 10:56:05;;;;;;;8.80;3.90;;;;;;;;;;4989198;28;20221;-61
2023/07/19 10:58:31;;;;;;;9.13;3.80;;;;;;;;;;4973533;28;20307;-60
2023/07/19 11:00:56;;;;;;;9.95;4.10;;;;;;;;;;4990700;28;20244;-60
2023/07/19 11:03:23;;;;;;;8.07;3.58;;;;;;;;;;4986567;28;20220;-60
2023/07/19 11:05:49;;;;;;;6.97;3.05;;;;;;;;;;4988602;28;20220;-60
2023/07/19 11:08:22;;;;;;;7.97;3.05;;;;;;;;;;4987086;28;20220;-60
2023/07/19 11:10:49;;;;;;;7.13;2.70;;;;;;;;;;4968850;28;20680;-60
2023/07/19 11:13:14;;;;;;;6.97;2.95;;;;;;;;;;4986916;28;20209;-60
2023/07/19 11:15:41;;;;;;;5.72;2.72;;;;;;;;;;4988458;28;20225;-60
2023/07/19 11:18:06;;;;;;;4.85;1.88;;;;;;;;;;4987518;28;20224;-60
2023/07/19 11:20:32;;;;;;;4.78;2.03;;;;;;;;;;4991217;28;20294;-61
2023/07/19 11:23:05;;;;;;;5.97;2.13;;;;;;;;;;4990190;28;20213;-60
2023/07/19 11:25:31;;;;;;;6.20;2.17;;;;;;;;;;4992125;28;20210;-60
2023/07/19 11:27:56;;;;;;;4.28;1.92;;;;;;;;;;4991186;28;20217;-60
2023/07/19 11:30:23;;;;;;;5.88;1.98;;;;;;;;;;4988981;28;20224;-60
2023/07/19 11:33:00;;;;;;;4.22;2.00;;;;;;;;;;4991960;28;20228;-60
2023/07/19 11:35:26;;;;;;;4.45;1.98;;;;;;;;;;4991628;28;20225;-60
2023/07/19 11:37:51;;;;;;;5.47;2.10;;;;;;;;;;4973205;28;20220;-60
2023/07/19 11:40:16;;;;;;;3.20;1.70;;;;;;;;;;4989270;28;20917;-60
2023/07/19 11:42:44;;;;;;;6.00;2.25;;;;;;;;;;4991653;28;20217;-60
2023/07/19 11:45:10;;;;;;;5.63;2.20;;;;;;;;;;4990319;28;20229;-60
2023/07/19 11:47:35;;;;;;;6.35;2.33;;;;;;;;;;4988801;28;20572;-60
2023/07/19 11:50:01;;;;;;;6.85;2.30;;;;;;;;;;4991225;28;20836;-61
2023/07/19 11:52:26;;;;;;;6.47;2.47;;;;;;;;;;4991502;28;20236;-60
2023/07/19 11:54:52;;;;;;;7.50;2.63;;;;;;;;;;4988785;28;20597;-60
2023/07/19 11:57:18;;;;;;;8.70;2.42;;;;;;;;;;4990567;28;20487;-60
2023/07/19 11:59:43;;;;;;;6.75;2.50;;;;;;;;;;4991251;28;20673;-60
2023/07/19 12:02:09;;;;;;;5.25;2.20;;;;;;;;;;4989077;28;20695;-60
2023/07/19 12:04:35;;;;;;;6.30;2.00;;;;;;;;;;4989868;28;20295;-60
2023/07/19 12:07:00;;;;;;;5.82;2.00;;;;;;;;;;4991688;28;20596;-59
2023/07/19 12:09:26;;;;;;;6.30;2.10;;;;;;;;;;4989518;28;20695;-59
2023/07/19 12:11:51;;;;;;;3.97;1.98;;;;;;;;;;4988675;28;20618;-59
2023/07/19 12:14:17;;;;;;;5.82;2.00;;;;;;;;;;4990784;28;20213;-59
2023/07/19 12:16:42;;;;;;;5.65;2.22;;;;;;;;;;4990521;28;20313;-59
2023/07/19 12:19:09;;;;;;;7.63;2.50;;;;;;;;;;4988936;28;20271;-59
2023/07/19 12:21:35;;;;;;;5.38;2.35;;;;;;;;;;4990255;28;20217;-59
2023/07/19 12:24:00;;;;;;;6.72;2.90;;;;;;;;;;4989650;28;20690;-60
2023/07/19 12:26:26;;;;;;;6.32;2.60;;;;;;;;;;4990668;28;20693;-59
2023/07/19 12:28:51;;;;;;;8.45;2.40;;;;;;;;;;4988967;28;20851;-59
2023/07/19 12:31:16;;;;;;;5.80;2.55;;;;;;;;;;4989530;28;20359;-59
2023/07/19 12:33:42;;;;;;;5.55;2.47;;;;;;;;;;4989888;28;20307;-60
2023/07/19 12:36:09;;;;;;;6.80;2.83;;;;;;;;;;4988057;28;20224;-60
2023/07/19 12:38:34;;;;;;;6.88;2.78;;;;;;;;;;4988753;28;20439;-60
2023/07/19 12:40:59;;;;;;;7.82;2.80;;;;;;;;;;4990668;28;20221;-60
2023/07/19 12:43:25;;;;;;;7.38;3.10;;;;;;;;;;4987946;28;20269;-60
2023/07/19 12:45:50;;;;;;;6.97;2.78;;;;;;;;;;4989024;28;20384;-60
2023/07/19 12:48:15;;;;;;;7.82;2.75;;;;;;;;;;4989923;28;20221;-59
2023/07/19 12:50:40;;;;;;;7.07;2.60;;;;;;;;;;4990099;28;20232;-59
2023/07/19 12:53:06;;;;;;;8.35;2.78;;;;;;;;;;4973716;28;20628;-60
2023/07/19 12:55:31;;;;;;;6.22;2.90;;;;;;;;;;4978113;28;21421;-59
2023/07/19 12:57:57;;;;;;;11.02;3.13;;;;;;;;;;4976043;28;20296;-59
2023/07/19 13:00:22;;;;;;;8.00;3.22;;;;;;;;;;4976748;28;20218;-60
2023/07/19 13:02:48;;;;;;;6.22;2.85;;;;;;;;;;4977948;28;20225;-60
2023/07/19 13:05:15;;;;;;;7.43;2.72;;;;;;;;;;4982814;28;20209;-59
2023/07/19 13:07:40;;;;;;;4.97;2.35;;;;;;;;;;4984505;28;20221;-60
2023/07/19 13:10:10;;;;;;;7.40;2.50;;;;;;;;;;4981858;28;20288;-60
2023/07/19 13:12:35;;;;;;;6.30;2.40;;;;;;;;;;4982737;28;20604;-60
2023/07/19 13:15:01;;;;;;;8.60;2.58;;;;;;;;;;4983620;28;20696;-60
2023/07/19 13:17:26;;;;;;;6.43;2.38;;;;;;;;;;4982311;28;20216;-59
2023/07/19 13:19:51;;;;;;;5.95;2.58;;;;;;;;;;4974107;28;20826;-59
2023/07/19 13:22:17;;;;;;;7.47;2.50;;;;;;;;;;4976048;28;20249;-59
2023/07/19 13:24:43;;;;;;;8.52;2.92;;;;;;;;;;4978153;28;20793;-59
2023/07/19 13:27:08;;;;;;;9.63;2.40;;;;;;;;;;4980828;28;20221;-59
2023/07/19 13:29:33;;;;;;;6.63;2.47;;;;;;;;;;4983798;28;20217;-59
2023/07/19 13:31:59;;;;;;;7.28;2.78;;;;;;;;;;4983305;28;20225;-59
2023/07/19 13:34:25;;;;;;;6.15;2.50;;;;;;;;;;4964120;28;20327;-59
2023/07/19 13:36:51;;;;;;;6.60;2.50;;;;;;;;;;4982359;28;20224;-59
2023/07/19 13:39:16;;;;;;;8.05;2.45;;;;;;;;;;4982390;28;20914;-59
2023/07/19 13:41:41;;;;;;;7.38;2.58;;;;;;;;;;4978035;28;20415;-59
2023/07/19 13:44:07;;;;;;;9.88;3.15;;;;;;;;;;4975365;28;21105;-60
2023/07/19 13:46:35;;;;;;;10.38;2.75;;;;;;;;;;4975198;28;20236;-59
2023/07/19 13:49:00;;;;;;;5.85;2.53;;;;;;;;;;4978698;28;20205;-60
2023/07/19 13:51:25;;;;;;;8.75;2.60;;;;;;;;;;4982317;28;20240;-59
2023/07/19 13:53:51;;;;;;;9.57;2.50;;;;;;;;;;4981704;28;20218;-59
2023/07/19 13:56:16;;;;;;;6.63;2.47;;;;;;;;;;4979611;28;20436;-59
2023/07/19 13:58:42;;;;;;;8.35;2.90;;;;;;;;;;4983491;28;20356;-59
2023/07/19 14:01:07;;;;;;;7.05;2.58;;;;;;;;;;4981797;28;20732;-60
2023/07/19 14:03:32;;;;;;;8.27;2.55;;;;;;;;;;4977177;28;20213;-59
2023/07/19 14:05:58;;;;;;;7.30;2.40;;;;;;;;;;4974582;28;20213;-59
2023/07/19 14:08:23;;;;;;;6.57;2.53;;;;;;;;;;4974827;28;20247;-59
2023/07/19 14:10:48;;;;;;;6.53;2.33;;;;;;;;;;4978564;28;20300;-60
2023/07/19 14:13:14;;;;;;;6.45;2.60;;;;;;;;;;4980983;28;20677;-59
2023/07/19 14:15:39;;;;;;;6.82;2.45;;;;;;;;;;4981593;28;20267;-59
2023/07/19 14:18:04;;;;;;;8.15;2.45;;;;;;;;;;4981903;28;20217;-59
2023/07/19 14:20:30;;;;;;;5.95;2.38;;;;;;;;;;4980486;28;20287;-60
2023/07/19 14:22:55;;;;;;;5.85;2.10;;;;;;;;;;4983532;28;20216;-59
2023/07/19 14:25:20;;;;;;;6.65;2.30;;;;;;;;;;4980829;28;20232;-59
2023/07/19 14:27:47;;;;;;;7.55;2.42;;;;;;;;;;4972907;28;20572;-60
2023/07/19 14:30:12;;;;;;;4.65;2.22;;;;;;;;;;4971952;28;20248;-59
2023/07/19 14:32:37;;;;;;;9.38;2.60;;;;;;;;;;4975615;28;20300;-60